Nearby METAR Reports

Here are local weather reports from nearby weather stations and airports.

KHFD - Hartford/Brainar, Connecticut, USA
Distance from station: NE 5mi, 8km
Updated: Wed, 12/08/21 8:53pm EST
Light snow, Mist, Overcast
Light snow, Mist, Overcast
 Wind from NNW
Wind: NNW 7 mph , 11 km/h
Temperature: 32°F , 0°C
Wind Chill: 25°F , -4°C
Dew Point: 28°F , -2°C
Humidity: 87%
Barometer: 29.89 inHg , 1012.2 hPa
Summary: Light snow, Mist
Clouds: Overcast
Visibility: 1 1/2 miles , 2.4 km
Cloud details: Mostly cloudy 600 ft
Overcast 1500 ft
2021/12/09 01:53 KHFD 090153Z 34006KT 1 1/2SM -SN BR BKN006 OVC015 00/M02 A2989 RMK AO2 SLP121 P0002 T00001017
KMMK - Meriden, Connecticut, USA
Distance from station: SSW 13mi, 21km
Updated: Wed, 12/08/21 9:07pm EST
Light snow, Mist, Overcast
Light snow, Mist, Overcast
 Wind from calm
Wind: Calm
Temperature: 30°F , -1°C
Dew Point: 28°F , -2°C
Humidity: 93%
Barometer: 29.89 inHg , 1012.2 hPa
Summary: Light snow, Mist
Clouds: Overcast
Visibility: 1 1/2 miles , 2.4 km
Cloud details: Few Clouds 600 ft
Overcast 1600 ft
2021/12/09 02:07 KMMK 090207Z AUTO 00000KT 1 1/2SM -SN BR FEW006 OVC016 M01/M02 A2989 RMK AO2 P0000 T10061017
 
KBDL - Windsor Locks, Connecticut, USA
Distance from station: N 17mi, 28km
Updated: Wed, 12/08/21 8:51pm EST
Light snow, Mist, Overcast
Light snow, Mist, Overcast
 Wind from NNW
Wind: NNW 6 mph , 9 km/h
Temperature: 30°F , -1°C
Wind Chill: 24°F , -4°C
Dew Point: 28°F , -2°C
Humidity: 93%
Barometer: 29.88 inHg , 1011.9 hPa
Summary: Light snow, Mist
Clouds: Overcast
Visibility: 1 mile , 2 km
Cloud details: Few Clouds 600 ft
Overcast 1300 ft
2021/12/09 01:51 KBDL 090151Z 34005KT 1SM R06/P6000FT -SN BR FEW006 OVC013 M01/M02 A2988 RMK AO2 SFC VIS 1 3/4 SLP120 P0004 T10061022
KSNC - Chester, Connecticut, USA
Distance from station: SSE 24mi, 38km
Updated: Wed, 12/08/21 8:55pm EST
Light snow, Overcast
Light snow, Overcast
 
Temperature: 32°F , 0°C
Dew Point: 30°F , -1°C
Humidity: 93%
Barometer: 29.86 inHg , 1011.2 hPa
Summary: Light Snow
Clouds: Overcast
Visibility: 1 3/4 miles , 2.8 km
Cloud details: Mostly cloudy 200 ft
Overcast 500 ft
2021/12/09 01:55 KSNC 090155Z AUTO 1 3/4SM -SN BKN002 OVC005 M00/M01 A2986 RMK AO2
 
KOXC - Oxford/Waterbury, Connecticut, USA
Distance from station: SW 26mi, 42km
Updated: Wed, 12/08/21 8:51pm EST
Light snow, Mist, Overcast
Light snow, Mist, Overcast
 Wind from NNW
Wind: NNW 7 mph , 11 km/h
Temperature: 28°F , -2°C
Wind Chill: 21°F , -6°C
Dew Point: 28°F , -2°C
Humidity: 100%
Barometer: 29.86 inHg , 1011.2 hPa
Summary: Light snow, Mist
Clouds: Overcast
Visibility: 1 1/2 miles , 2.4 km
Cloud details: Few Clouds 600 ft
Partly cloudy 1900 ft
Overcast 2900 ft
2021/12/09 01:51 KOXC 090151Z 33006KT 1 1/2SM -SN BR FEW006 SCT019 OVC029 M02/M02 A2986 RMK AO2 SLP134 P0000 T10171022
KIJD - Willimantic, Connecticut, USA
Distance from station: E 28mi, 45km
Updated: Wed, 12/08/21 8:59pm EST
Light snow, Mist, Overcast
Light snow, Mist, Overcast
 Wind from N
Wind: N 6 mph , 9 km/h
Temperature: 30°F , -1°C
Wind Chill: 24°F , -4°C
Dew Point: 30°F , -1°C
Humidity: 100%
Barometer: 29.86 inHg , 1011.2 hPa
Summary: Light snow, Mist
Clouds: Overcast
Visibility: 1 1/4 miles , 2 km
Cloud details: Few Clouds 800 ft
Mostly cloudy 1400 ft
Overcast 1900 ft
2021/12/09 01:59 KIJD 090159Z AUTO 35005KT 1 1/4SM -SN BR FEW008 BKN014 OVC019 M01/M01 A2986 RMK AO2 P0000 T10061011
 
KHVN - New Haven/Tweed, Connecticut, USA
Distance from station: SSW 30mi, 48km
Updated: Wed, 12/08/21 8:53pm EST
Light snow, Mist, Overcast
Light snow, Mist, Overcast
 Wind from N
Wind: N 7 mph , 11 km/h
Temperature: 34°F , 1°C
Wind Chill: 28°F , -2°C
Dew Point: 32°F , 0°C
Humidity: 93%
Barometer: 29.88 inHg , 1011.9 hPa
Summary: Light snow, Mist
Clouds: Overcast
Visibility: 1 1/4 miles , 2 km
Cloud details: Mostly cloudy 1900 ft
Overcast 2700 ft
2021/12/09 01:53 KHVN 090153Z 35006KT 1 1/4SM -SN BR BKN019 OVC027 01/00 A2988 RMK AO2 SLP118 P0001 T00110000
KBAF - Westfield, Massachusetts, USA
Distance from station: 0 33mi, 54km
Updated: Wed, 12/08/21 9:05pm EST
Light snow, Mist, Overcast
Light snow, Mist, Overcast
 Wind from N
Wind: N 6 mph , 9 km/h
Temperature: 30°F , -1°C
Wind Chill: 24°F , -4°C
Dew Point: 28°F , -2°C
Humidity: 93%
Barometer: 29.88 inHg , 1011.9 hPa
Summary: Light snow, Mist
Clouds: Overcast
Visibility: 1 1/2 miles , 2.4 km
Cloud details: Few Clouds 600 ft
Overcast 1400 ft
2021/12/09 02:05 KBAF 090205Z 35005KT 1 1/2SM -SN BR FEW006 OVC014 M01/M02 A2988 RMK AO2 P0000 T10111022
 
KCEF - Chicopee/Westove, Massachusetts, USA
Distance from station: NNE 37mi, 60km
Updated: Wed, 12/08/21 8:56pm EST
Light snow, Mist, Overcast
Light snow, Mist, Overcast
 Wind from NNW
Wind: NNW 6 mph , 9 km/h
Temperature: 30°F , -1°C
Wind Chill: 24°F , -4°C
Dew Point: 28°F , -2°C
Humidity: 93%
Barometer: 29.87 inHg , 1011.5 hPa
Summary: Light snow, Mist
Clouds: Overcast
Visibility: 2 miles , 3 km
Cloud details: Overcast 1700 ft
2021/12/09 01:56 KCEF 090156Z 34005KT 2SM -SN BR OVC017 M01/M02 A2987 RMK AO2A SLP124 P0000 T10121019
KBDR - Bridgeport, Connecticut, USA
Distance from station: SSW 42mi, 67km
Updated: Wed, 12/08/21 8:52pm EST
Light snow, Overcast
Light snow, Overcast
 Wind from NNW
Wind: NNW 8 mph , 13 km/h
Temperature: 32°F , 0°C
Wind Chill: 25°F , -4°C
Dew Point: 30°F , -1°C
Humidity: 93%
Barometer: 29.89 inHg , 1012.2 hPa
Summary: Light Snow
Clouds: Overcast
Visibility: 8 miles , 13 km
Cloud details: Few Clouds 2300 ft
Partly cloudy 2900 ft
Overcast 4000 ft
2021/12/09 01:52 KBDR 090152Z 34007KT 8SM -SN FEW023 SCT029 OVC040 00/M01 A2989 RMK AO2 SLP121 P0001 T00001011
 
KGON - Groton/New Londo, Connecticut, USA
Distance from station: SE 42mi, 68km
Updated: Wed, 12/08/21 8:56pm EST
Light snow, Mist, Overcast
Light snow, Mist, Overcast
 Wind from NNW
Wind: NNW 10 mph , 17 km/h
Temperature: 34°F , 1°C
Wind Chill: 26°F , -3°C
Dew Point: 28°F , -2°C
Humidity: 81%
Barometer: 29.84 inHg , 1010.5 hPa
Summary: Light snow, Mist
Clouds: Overcast
Visibility: 5 miles , 8 km
Cloud details: Overcast 1800 ft
2021/12/09 01:56 KGON 090156Z 33009KT 5SM -SN BR OVC018 01/M02 A2984 RMK AO2 SNB47 SLP105 P0000 T00061017
KDXR - Danbury, Connecticut, USA
Distance from station: WSW 45mi, 73km
Updated: Wed, 12/08/21 8:53pm EST
Light snow, Mist, Overcast
Light snow, Mist, Overcast
 Wind from N
Wind: N 3 mph , 6 km/h
Temperature: 34°F , 1°C
Dew Point: 28°F , -2°C
Humidity: 81%
Barometer: 29.89 inHg , 1012.2 hPa
Summary: Light snow, Mist
Clouds: Overcast
Visibility: 2 miles , 3 km
Cloud details: Mostly cloudy 600 ft
Overcast 1000 ft
2021/12/09 01:53 KDXR 090153Z 35003KT 2SM -SN BR BKN006 OVC010 01/M02 A2989 RMK AO2 SLP124 P0001 T00061017